sensor_id;sensor_type;location;lat;lon;timestamp;P1;durP1;ratioP1;P2;durP2;ratioP2
37425;SDS011;23285;50.180;7.036;2023-04-03T00:02:12;2.50;;;1.97;;
37425;SDS011;23285;50.180;7.036;2023-04-03T00:04:59;3.57;;;1.90;;
37425;SDS011;23285;50.180;7.036;2023-04-03T00:07:45;2.73;;;1.60;;
37425;SDS011;23285;50.180;7.036;2023-04-03T00:10:34;2.10;;;1.60;;
37425;SDS011;23285;50.180;7.036;2023-04-03T00:13:21;3.10;;;1.80;;
37425;SDS011;23285;50.180;7.036;2023-04-03T00:16:09;2.07;;;1.70;;
37425;SDS011;23285;50.180;7.036;2023-04-03T00:18:56;2.30;;;1.60;;
37425;SDS011;23285;50.180;7.036;2023-04-03T00:21:42;2.00;;;1.60;;
37425;SDS011;23285;50.180;7.036;2023-04-03T00:24:29;2.67;;;1.70;;
37425;SDS011;23285;50.180;7.036;2023-04-03T00:27:15;1.87;;;1.57;;
37425;SDS011;23285;50.180;7.036;2023-04-03T00:30:01;2.20;;;1.50;;
37425;SDS011;23285;50.180;7.036;2023-04-03T00:32:50;3.63;;;1.73;;
37425;SDS011;23285;50.180;7.036;2023-04-03T00:35:37;2.63;;;1.80;;
37425;SDS011;23285;50.180;7.036;2023-04-03T00:38:23;1.90;;;1.50;;
37425;SDS011;23285;50.180;7.036;2023-04-03T00:41:10;2.27;;;1.57;;
37425;SDS011;23285;50.180;7.036;2023-04-03T00:43:57;2.03;;;1.80;;
37425;SDS011;23285;50.180;7.036;2023-04-03T00:46:44;3.63;;;1.87;;
37425;SDS011;23285;50.180;7.036;2023-04-03T00:49:32;2.33;;;1.60;;
37425;SDS011;23285;50.180;7.036;2023-04-03T00:52:21;2.83;;;1.87;;
37425;SDS011;23285;50.180;7.036;2023-04-03T00:55:10;2.77;;;1.90;;
37425;SDS011;23285;50.180;7.036;2023-04-03T00:57:57;2.33;;;1.73;;
37425;SDS011;23285;50.180;7.036;2023-04-03T01:00:46;2.03;;;1.53;;
37425;SDS011;23285;50.180;7.036;2023-04-03T01:03:40;3.10;;;1.80;;
37425;SDS011;23285;50.180;7.036;2023-04-03T01:06:28;3.13;;;1.90;;
37425;SDS011;23285;50.180;7.036;2023-04-03T01:09:24;2.17;;;1.70;;
37425;SDS011;23285;50.180;7.036;2023-04-03T01:12:15;3.10;;;1.53;;
37425;SDS011;23285;50.180;7.036;2023-04-03T01:15:04;2.80;;;1.73;;
37425;SDS011;23285;50.180;7.036;2023-04-03T01:17:52;3.77;;;1.80;;
37425;SDS011;23285;50.180;7.036;2023-04-03T01:20:50;1.83;;;1.57;;
37425;SDS011;23285;50.180;7.036;2023-04-03T01:23:52;2.33;;;1.50;;
37425;SDS011;23285;50.180;7.036;2023-04-03T01:26:49;2.67;;;1.97;;
37425;SDS011;23285;50.180;7.036;2023-04-03T01:29:35;3.63;;;1.80;;
37425;SDS011;23285;50.180;7.036;2023-04-03T01:32:24;4.87;;;2.00;;
37425;SDS011;23285;50.180;7.036;2023-04-03T01:35:10;4.43;;;1.73;;
37425;SDS011;23285;50.180;7.036;2023-04-03T01:37:57;2.60;;;1.67;;
37425;SDS011;23285;50.180;7.036;2023-04-03T01:40:43;2.40;;;1.90;;
37425;SDS011;23285;50.180;7.036;2023-04-03T01:43:30;3.10;;;1.80;;
37425;SDS011;23285;50.180;7.036;2023-04-03T01:46:17;3.70;;;1.50;;
37425;SDS011;23285;50.180;7.036;2023-04-03T01:49:06;3.20;;;1.70;;
37425;SDS011;23285;50.180;7.036;2023-04-03T01:51:52;2.37;;;1.57;;
37425;SDS011;23285;50.180;7.036;2023-04-03T01:54:38;3.10;;;1.90;;
37425;SDS011;23285;50.180;7.036;2023-04-03T01:57:25;4.77;;;1.70;;
37425;SDS011;23285;50.180;7.036;2023-04-03T02:00:11;2.03;;;1.80;;
37425;SDS011;23285;50.180;7.036;2023-04-03T02:02:59;8.70;;;2.00;;
37425;SDS011;23285;50.180;7.036;2023-04-03T02:05:47;5.57;;;2.10;;
37425;SDS011;23285;50.180;7.036;2023-04-03T02:08:34;2.83;;;1.47;;
37425;SDS011;23285;50.180;7.036;2023-04-03T02:11:20;4.00;;;1.73;;
37425;SDS011;23285;50.180;7.036;2023-04-03T02:14:06;2.83;;;1.60;;
37425;SDS011;23285;50.180;7.036;2023-04-03T02:16:53;3.67;;;2.27;;
37425;SDS011;23285;50.180;7.036;2023-04-03T02:19:40;2.60;;;1.70;;
37425;SDS011;23285;50.180;7.036;2023-04-03T02:22:28;4.07;;;2.07;;
37425;SDS011;23285;50.180;7.036;2023-04-03T02:25:15;5.40;;;1.90;;
37425;SDS011;23285;50.180;7.036;2023-04-03T02:28:02;4.30;;;1.90;;
37425;SDS011;23285;50.180;7.036;2023-04-03T02:30:49;2.57;;;1.60;;
37425;SDS011;23285;50.180;7.036;2023-04-03T02:33:35;2.20;;;2.00;;
37425;SDS011;23285;50.180;7.036;2023-04-03T02:36:25;2.40;;;1.70;;
37425;SDS011;23285;50.180;7.036;2023-04-03T02:39:17;3.90;;;1.67;;
37425;SDS011;23285;50.180;7.036;2023-04-03T02:42:03;2.13;;;1.70;;
37425;SDS011;23285;50.180;7.036;2023-04-03T02:44:49;2.77;;;1.57;;
37425;SDS011;23285;50.180;7.036;2023-04-03T02:47:36;2.67;;;1.90;;
37425;SDS011;23285;50.180;7.036;2023-04-03T02:50:22;3.87;;;1.80;;
37425;SDS011;23285;50.180;7.036;2023-04-03T02:53:08;2.50;;;1.70;;
37425;SDS011;23285;50.180;7.036;2023-04-03T02:55:56;1.87;;;1.70;;
37425;SDS011;23285;50.180;7.036;2023-04-03T02:58:42;4.17;;;1.67;;
37425;SDS011;23285;50.180;7.036;2023-04-03T03:01:29;4.03;;;2.20;;
37425;SDS011;23285;50.180;7.036;2023-04-03T03:04:17;1.70;;;1.50;;
37425;SDS011;23285;50.180;7.036;2023-04-03T03:07:03;2.40;;;1.70;;
37425;SDS011;23285;50.180;7.036;2023-04-03T03:09:50;3.83;;;1.63;;
37425;SDS011;23285;50.180;7.036;2023-04-03T03:12:37;3.80;;;1.77;;
37425;SDS011;23285;50.180;7.036;2023-04-03T03:15:25;2.37;;;1.73;;
37425;SDS011;23285;50.180;7.036;2023-04-03T03:18:11;3.93;;;1.90;;
37425;SDS011;23285;50.180;7.036;2023-04-03T03:20:58;3.30;;;1.73;;
37425;SDS011;23285;50.180;7.036;2023-04-03T03:23:45;1.73;;;1.40;;
37425;SDS011;23285;50.180;7.036;2023-04-03T03:26:32;2.77;;;1.60;;
37425;SDS011;23285;50.180;7.036;2023-04-03T03:29:21;3.10;;;1.60;;
37425;SDS011;23285;50.180;7.036;2023-04-03T03:32:08;2.63;;;1.50;;
37425;SDS011;23285;50.180;7.036;2023-04-03T03:34:54;3.60;;;1.80;;
37425;SDS011;23285;50.180;7.036;2023-04-03T03:37:41;2.47;;;1.63;;
37425;SDS011;23285;50.180;7.036;2023-04-03T03:40:27;4.73;;;1.70;;
37425;SDS011;23285;50.180;7.036;2023-04-03T03:43:13;4.47;;;1.70;;
37425;SDS011;23285;50.180;7.036;2023-04-03T03:46:01;3.63;;;1.87;;
37425;SDS011;23285;50.180;7.036;2023-04-03T03:48:48;3.87;;;1.77;;
37425;SDS011;23285;50.180;7.036;2023-04-03T03:51:35;4.27;;;1.83;;
37425;SDS011;23285;50.180;7.036;2023-04-03T03:54:21;4.83;;;1.70;;
37425;SDS011;23285;50.180;7.036;2023-04-03T03:57:09;3.67;;;1.90;;
37425;SDS011;23285;50.180;7.036;2023-04-03T03:59:55;2.50;;;1.57;;
37425;SDS011;23285;50.180;7.036;2023-04-03T04:02:43;2.80;;;1.53;;
37425;SDS011;23285;50.180;7.036;2023-04-03T04:05:34;2.53;;;1.67;;
37425;SDS011;23285;50.180;7.036;2023-04-03T04:08:21;4.77;;;1.60;;
37425;SDS011;23285;50.180;7.036;2023-04-03T04:11:08;2.90;;;1.80;;
37425;SDS011;23285;50.180;7.036;2023-04-03T04:13:55;4.80;;;1.80;;
37425;SDS011;23285;50.180;7.036;2023-04-03T04:16:44;2.73;;;1.70;;
37425;SDS011;23285;50.180;7.036;2023-04-03T04:19:38;5.30;;;1.93;;
37425;SDS011;23285;50.180;7.036;2023-04-03T04:22:24;3.37;;;1.50;;
37425;SDS011;23285;50.180;7.036;2023-04-03T04:25:11;2.33;;;1.67;;
37425;SDS011;23285;50.180;7.036;2023-04-03T04:27:58;3.13;;;1.57;;
37425;SDS011;23285;50.180;7.036;2023-04-03T04:30:45;3.60;;;1.80;;
37425;SDS011;23285;50.180;7.036;2023-04-03T04:33:33;4.37;;;2.03;;
37425;SDS011;23285;50.180;7.036;2023-04-03T04:36:23;6.13;;;2.13;;
37425;SDS011;23285;50.180;7.036;2023-04-03T04:39:09;3.77;;;1.77;;
37425;SDS011;23285;50.180;7.036;2023-04-03T04:41:56;5.53;;;2.03;;
37425;SDS011;23285;50.180;7.036;2023-04-03T04:44:45;4.00;;;1.90;;
37425;SDS011;23285;50.180;7.036;2023-04-03T04:47:33;5.60;;;2.10;;
37425;SDS011;23285;50.180;7.036;2023-04-03T04:50:19;3.60;;;1.77;;
37425;SDS011;23285;50.180;7.036;2023-04-03T04:53:07;5.27;;;1.70;;
37425;SDS011;23285;50.180;7.036;2023-04-03T04:55:53;1.93;;;1.53;;
37425;SDS011;23285;50.180;7.036;2023-04-03T04:58:40;2.87;;;1.70;;
37425;SDS011;23285;50.180;7.036;2023-04-03T05:01:26;4.70;;;1.60;;
37425;SDS011;23285;50.180;7.036;2023-04-03T05:04:20;3.50;;;1.63;;
37425;SDS011;23285;50.180;7.036;2023-04-03T05:07:11;4.50;;;1.87;;
37425;SDS011;23285;50.180;7.036;2023-04-03T05:09:59;4.73;;;1.90;;
37425;SDS011;23285;50.180;7.036;2023-04-03T05:12:46;4.43;;;1.60;;
37425;SDS011;23285;50.180;7.036;2023-04-03T05:15:33;2.73;;;1.70;;
37425;SDS011;23285;50.180;7.036;2023-04-03T05:18:20;3.63;;;1.83;;
37425;SDS011;23285;50.180;7.036;2023-04-03T05:21:07;4.00;;;1.83;;
37425;SDS011;23285;50.180;7.036;2023-04-03T05:23:54;4.70;;;2.10;;
37425;SDS011;23285;50.180;7.036;2023-04-03T05:26:42;6.27;;;4.20;;
37425;SDS011;23285;50.180;7.036;2023-04-03T05:29:29;6.23;;;3.77;;
37425;SDS011;23285;50.180;7.036;2023-04-03T05:32:17;7.90;;;3.50;;
37425;SDS011;23285;50.180;7.036;2023-04-03T05:35:08;3.87;;;2.03;;
37425;SDS011;23285;50.180;7.036;2023-04-03T05:37:55;4.27;;;2.40;;
37425;SDS011;23285;50.180;7.036;2023-04-03T05:40:42;3.80;;;1.83;;
37425;SDS011;23285;50.180;7.036;2023-04-03T05:43:30;3.80;;;1.80;;
37425;SDS011;23285;50.180;7.036;2023-04-03T05:46:18;10.70;;;2.43;;
37425;SDS011;23285;50.180;7.036;2023-04-03T05:49:10;2.97;;;1.70;;
37425;SDS011;23285;50.180;7.036;2023-04-03T05:51:56;4.93;;;1.97;;
37425;SDS011;23285;50.180;7.036;2023-04-03T05:54:46;4.00;;;1.90;;
37425;SDS011;23285;50.180;7.036;2023-04-03T05:57:38;4.50;;;2.00;;
37425;SDS011;23285;50.180;7.036;2023-04-03T06:00:26;3.10;;;1.90;;
37425;SDS011;23285;50.180;7.036;2023-04-03T06:03:19;7.57;;;2.00;;
37425;SDS011;23285;50.180;7.036;2023-04-03T06:06:05;6.13;;;3.00;;
37425;SDS011;23285;50.180;7.036;2023-04-03T06:08:52;6.67;;;2.33;;
37425;SDS011;23285;50.180;7.036;2023-04-03T06:11:38;20.43;;;13.60;;
37425;SDS011;23285;50.180;7.036;2023-04-03T06:14:26;107.50;;;61.90;;
37425;SDS011;23285;50.180;7.036;2023-04-03T06:17:14;86.43;;;54.80;;
37425;SDS011;23285;50.180;7.036;2023-04-03T06:20:02;6.63;;;4.10;;
37425;SDS011;23285;50.180;7.036;2023-04-03T06:22:49;7.13;;;2.60;;
37425;SDS011;23285;50.180;7.036;2023-04-03T06:25:35;7.47;;;2.47;;
37425;SDS011;23285;50.180;7.036;2023-04-03T06:28:22;6.33;;;2.50;;
37425;SDS011;23285;50.180;7.036;2023-04-03T06:31:08;6.60;;;3.30;;
37425;SDS011;23285;50.180;7.036;2023-04-03T06:33:56;5.77;;;2.40;;
37425;SDS011;23285;50.180;7.036;2023-04-03T06:36:42;5.97;;;2.23;;
37425;SDS011;23285;50.180;7.036;2023-04-03T06:39:29;4.83;;;2.43;;
37425;SDS011;23285;50.180;7.036;2023-04-03T06:42:15;6.20;;;2.70;;
37425;SDS011;23285;50.180;7.036;2023-04-03T06:45:12;3.00;;;2.07;;
37425;SDS011;23285;50.180;7.036;2023-04-03T06:47:58;5.93;;;2.27;;
37425;SDS011;23285;50.180;7.036;2023-04-03T06:50:46;4.87;;;2.67;;
37425;SDS011;23285;50.180;7.036;2023-04-03T06:53:33;5.70;;;2.47;;
37425;SDS011;23285;50.180;7.036;2023-04-03T06:56:19;5.80;;;2.50;;
37425;SDS011;23285;50.180;7.036;2023-04-03T06:59:06;3.83;;;1.80;;
37425;SDS011;23285;50.180;7.036;2023-04-03T07:01:53;5.23;;;2.33;;
37425;SDS011;23285;50.180;7.036;2023-04-03T07:04:39;4.97;;;2.10;;
37425;SDS011;23285;50.180;7.036;2023-04-03T07:07:26;5.20;;;1.93;;
37425;SDS011;23285;50.180;7.036;2023-04-03T07:10:13;2.93;;;2.03;;
37425;SDS011;23285;50.180;7.036;2023-04-03T07:13:00;7.47;;;2.20;;
37425;SDS011;23285;50.180;7.036;2023-04-03T07:15:46;6.27;;;2.00;;
37425;SDS011;23285;50.180;7.036;2023-04-03T07:18:33;6.87;;;2.10;;
37425;SDS011;23285;50.180;7.036;2023-04-03T07:21:20;5.87;;;2.10;;
37425;SDS011;23285;50.180;7.036;2023-04-03T07:24:07;6.17;;;2.53;;
37425;SDS011;23285;50.180;7.036;2023-04-03T07:26:54;6.10;;;2.93;;
37425;SDS011;23285;50.180;7.036;2023-04-03T07:29:40;7.30;;;2.87;;
37425;SDS011;23285;50.180;7.036;2023-04-03T07:32:27;5.53;;;2.40;;
37425;SDS011;23285;50.180;7.036;2023-04-03T07:35:13;7.17;;;2.60;;
37425;SDS011;23285;50.180;7.036;2023-04-03T07:38:00;4.67;;;2.53;;
37425;SDS011;23285;50.180;7.036;2023-04-03T07:40:48;10.03;;;4.77;;
37425;SDS011;23285;50.180;7.036;2023-04-03T07:43:36;4.93;;;3.30;;
37425;SDS011;23285;50.180;7.036;2023-04-03T07:46:23;6.90;;;2.77;;
37425;SDS011;23285;50.180;7.036;2023-04-03T07:49:10;4.10;;;2.43;;
37425;SDS011;23285;50.180;7.036;2023-04-03T07:51:56;5.30;;;2.50;;
37425;SDS011;23285;50.180;7.036;2023-04-03T07:54:43;6.93;;;2.87;;
37425;SDS011;23285;50.180;7.036;2023-04-03T07:57:30;5.27;;;3.10;;
37425;SDS011;23285;50.180;7.036;2023-04-03T08:00:17;5.60;;;2.90;;
37425;SDS011;23285;50.180;7.036;2023-04-03T08:03:05;3.93;;;2.00;;
37425;SDS011;23285;50.180;7.036;2023-04-03T08:05:52;6.27;;;2.10;;
37425;SDS011;23285;50.180;7.036;2023-04-03T08:08:38;6.30;;;2.47;;
37425;SDS011;23285;50.180;7.036;2023-04-03T08:11:25;4.03;;;2.37;;
37425;SDS011;23285;50.180;7.036;2023-04-03T08:14:13;7.93;;;2.10;;
37425;SDS011;23285;50.180;7.036;2023-04-03T08:17:03;5.90;;;3.83;;
37425;SDS011;23285;50.180;7.036;2023-04-03T08:19:50;5.97;;;3.20;;
37425;SDS011;23285;50.180;7.036;2023-04-03T08:22:36;11.97;;;8.70;;
37425;SDS011;23285;50.180;7.036;2023-04-03T08:25:23;8.27;;;3.90;;
37425;SDS011;23285;50.180;7.036;2023-04-03T08:28:09;4.97;;;2.30;;
37425;SDS011;23285;50.180;7.036;2023-04-03T08:31:01;4.00;;;1.90;;
37425;SDS011;23285;50.180;7.036;2023-04-03T08:33:48;3.70;;;2.30;;
37425;SDS011;23285;50.180;7.036;2023-04-03T08:36:34;4.17;;;2.53;;
37425;SDS011;23285;50.180;7.036;2023-04-03T08:39:21;5.27;;;2.43;;
37425;SDS011;23285;50.180;7.036;2023-04-03T08:42:11;3.60;;;2.20;;
37425;SDS011;23285;50.180;7.036;2023-04-03T08:45:05;6.67;;;2.53;;
37425;SDS011;23285;50.180;7.036;2023-04-03T08:47:58;5.50;;;2.40;;
37425;SDS011;23285;50.180;7.036;2023-04-03T08:50:47;4.67;;;2.10;;
37425;SDS011;23285;50.180;7.036;2023-04-03T08:53:35;6.67;;;2.37;;
37425;SDS011;23285;50.180;7.036;2023-04-03T08:56:26;5.73;;;2.73;;
37425;SDS011;23285;50.180;7.036;2023-04-03T08:59:14;4.13;;;2.83;;
37425;SDS011;23285;50.180;7.036;2023-04-03T09:02:12;5.27;;;2.67;;
37425;SDS011;23285;50.180;7.036;2023-04-03T09:05:12;6.97;;;3.03;;
37425;SDS011;23285;50.180;7.036;2023-04-03T09:08:00;4.70;;;2.50;;
37425;SDS011;23285;50.180;7.036;2023-04-03T09:10:52;10.33;;;2.77;;
37425;SDS011;23285;50.180;7.036;2023-04-03T09:13:48;5.60;;;3.33;;
37425;SDS011;23285;50.180;7.036;2023-04-03T09:16:43;6.50;;;2.27;;
37425;SDS011;23285;50.180;7.036;2023-04-03T09:19:35;3.97;;;2.10;;
37425;SDS011;23285;50.180;7.036;2023-04-03T09:22:31;4.27;;;2.70;;
37425;SDS011;23285;50.180;7.036;2023-04-03T09:25:18;4.77;;;2.43;;
37425;SDS011;23285;50.180;7.036;2023-04-03T09:28:06;5.10;;;2.50;;
37425;SDS011;23285;50.180;7.036;2023-04-03T09:30:54;5.20;;;2.50;;
37425;SDS011;23285;50.180;7.036;2023-04-03T09:33:40;7.23;;;2.20;;
37425;SDS011;23285;50.180;7.036;2023-04-03T09:36:42;3.67;;;1.90;;
37425;SDS011;23285;50.180;7.036;2023-04-03T09:39:31;6.40;;;1.87;;
37425;SDS011;23285;50.180;7.036;2023-04-03T09:42:19;4.20;;;2.10;;
37425;SDS011;23285;50.180;7.036;2023-04-03T09:45:18;3.63;;;2.07;;
37425;SDS011;23285;50.180;7.036;2023-04-03T09:48:13;5.83;;;2.07;;
37425;SDS011;23285;50.180;7.036;2023-04-03T09:51:02;6.97;;;2.13;;
37425;SDS011;23285;50.180;7.036;2023-04-03T09:53:49;2.23;;;1.70;;
37425;SDS011;23285;50.180;7.036;2023-04-03T09:56:37;3.40;;;1.80;;
37425;SDS011;23285;50.180;7.036;2023-04-03T09:59:23;5.20;;;1.97;;
37425;SDS011;23285;50.180;7.036;2023-04-03T10:05:28;6.30;;;2.00;;
37425;SDS011;23285;50.180;7.036;2023-04-03T10:08:20;3.63;;;1.80;;
37425;SDS011;23285;50.180;7.036;2023-04-03T10:11:13;4.27;;;1.80;;
37425;SDS011;23285;50.180;7.036;2023-04-03T10:14:02;2.43;;;1.70;;
37425;SDS011;23285;50.180;7.036;2023-04-03T10:16:50;2.77;;;1.53;;
37425;SDS011;23285;50.180;7.036;2023-04-03T10:19:44;4.00;;;1.80;;
37425;SDS011;23285;50.180;7.036;2023-04-03T10:22:36;4.63;;;1.90;;
37425;SDS011;23285;50.180;7.036;2023-04-03T10:25:25;4.27;;;1.87;;
37425;SDS011;23285;50.180;7.036;2023-04-03T10:28:15;4.03;;;1.90;;
37425;SDS011;23285;50.180;7.036;2023-04-03T10:31:05;5.53;;;3.63;;
37425;SDS011;23285;50.180;7.036;2023-04-03T10:33:59;6.47;;;3.83;;
37425;SDS011;23285;50.180;7.036;2023-04-03T10:36:51;3.20;;;2.10;;
37425;SDS011;23285;50.180;7.036;2023-04-03T10:39:39;4.57;;;2.77;;
37425;SDS011;23285;50.180;7.036;2023-04-03T10:42:34;4.30;;;2.27;;
37425;SDS011;23285;50.180;7.036;2023-04-03T10:45:24;3.87;;;2.00;;
37425;SDS011;23285;50.180;7.036;2023-04-03T10:48:15;7.63;;;5.20;;
37425;SDS011;23285;50.180;7.036;2023-04-03T10:51:11;6.83;;;2.37;;
37425;SDS011;23285;50.180;7.036;2023-04-03T10:54:08;3.23;;;1.93;;
37425;SDS011;23285;50.180;7.036;2023-04-03T10:57:02;6.07;;;2.63;;
37425;SDS011;23285;50.180;7.036;2023-04-03T10:59:51;5.23;;;2.00;;
37425;SDS011;23285;50.180;7.036;2023-04-03T11:02:44;5.97;;;2.10;;
37425;SDS011;23285;50.180;7.036;2023-04-03T11:05:39;5.23;;;1.97;;
37425;SDS011;23285;50.180;7.036;2023-04-03T11:08:32;3.50;;;1.60;;
37425;SDS011;23285;50.180;7.036;2023-04-03T11:11:20;2.33;;;1.87;;
37425;SDS011;23285;50.180;7.036;2023-04-03T11:14:13;5.73;;;1.90;;
37425;SDS011;23285;50.180;7.036;2023-04-03T11:17:05;6.23;;;2.00;;
37425;SDS011;23285;50.180;7.036;2023-04-03T11:20:03;4.40;;;1.83;;
37425;SDS011;23285;50.180;7.036;2023-04-03T11:22:58;4.47;;;1.93;;
37425;SDS011;23285;50.180;7.036;2023-04-03T11:25:49;4.90;;;1.63;;
37425;SDS011;23285;50.180;7.036;2023-04-03T11:28:38;3.30;;;1.67;;
37425;SDS011;23285;50.180;7.036;2023-04-03T11:31:35;4.03;;;2.03;;
37425;SDS011;23285;50.180;7.036;2023-04-03T11:34:27;2.97;;;1.60;;
37425;SDS011;23285;50.180;7.036;2023-04-03T11:37:23;2.97;;;1.90;;
37425;SDS011;23285;50.180;7.036;2023-04-03T11:40:19;3.00;;;1.70;;
37425;SDS011;23285;50.180;7.036;2023-04-03T11:43:17;2.37;;;1.53;;
37425;SDS011;23285;50.180;7.036;2023-04-03T11:46:06;6.07;;;2.27;;
37425;SDS011;23285;50.180;7.036;2023-04-03T11:48:54;6.80;;;1.70;;
37425;SDS011;23285;50.180;7.036;2023-04-03T11:51:41;4.03;;;1.60;;
37425;SDS011;23285;50.180;7.036;2023-04-03T11:54:49;6.93;;;2.23;;
37425;SDS011;23285;50.180;7.036;2023-04-03T11:57:45;2.60;;;1.70;;
37425;SDS011;23285;50.180;7.036;2023-04-03T12:00:48;4.10;;;1.87;;
37425;SDS011;23285;50.180;7.036;2023-04-03T12:06:54;5.17;;;1.90;;
37425;SDS011;23285;50.180;7.036;2023-04-03T12:09:57;3.60;;;1.77;;
37425;SDS011;23285;50.180;7.036;2023-04-03T12:12:59;4.47;;;2.10;;
37425;SDS011;23285;50.180;7.036;2023-04-03T12:15:49;4.40;;;1.97;;
37425;SDS011;23285;50.180;7.036;2023-04-03T12:18:41;3.97;;;2.07;;
37425;SDS011;23285;50.180;7.036;2023-04-03T12:24:53;5.10;;;1.73;;
37425;SDS011;23285;50.180;7.036;2023-04-03T12:27:40;4.30;;;2.07;;
37425;SDS011;23285;50.180;7.036;2023-04-03T12:30:29;4.40;;;2.27;;
37425;SDS011;23285;50.180;7.036;2023-04-03T12:33:20;3.23;;;1.73;;
37425;SDS011;23285;50.180;7.036;2023-04-03T12:36:18;4.30;;;1.93;;
37425;SDS011;23285;50.180;7.036;2023-04-03T12:39:22;4.23;;;1.90;;
37425;SDS011;23285;50.180;7.036;2023-04-03T12:42:17;5.37;;;2.17;;
37425;SDS011;23285;50.180;7.036;2023-04-03T12:45:23;3.20;;;1.97;;
37425;SDS011;23285;50.180;7.036;2023-04-03T12:48:14;3.37;;;1.97;;
37425;SDS011;23285;50.180;7.036;2023-04-03T12:51:01;3.37;;;2.10;;
37425;SDS011;23285;50.180;7.036;2023-04-03T12:53:49;3.07;;;2.00;;
37425;SDS011;23285;50.180;7.036;2023-04-03T12:56:37;2.83;;;1.57;;
37425;SDS011;23285;50.180;7.036;2023-04-03T12:59:25;2.23;;;1.70;;
37425;SDS011;23285;50.180;7.036;2023-04-03T13:05:19;5.57;;;2.30;;
37425;SDS011;23285;50.180;7.036;2023-04-03T13:08:10;3.20;;;2.57;;
37425;SDS011;23285;50.180;7.036;2023-04-03T13:10:58;5.67;;;2.20;;
37425;SDS011;23285;50.180;7.036;2023-04-03T13:13:56;2.87;;;1.70;;
37425;SDS011;23285;50.180;7.036;2023-04-03T13:16:52;5.67;;;2.40;;
37425;SDS011;23285;50.180;7.036;2023-04-03T13:19:40;4.27;;;2.00;;
37425;SDS011;23285;50.180;7.036;2023-04-03T13:22:29;6.13;;;2.17;;
37425;SDS011;23285;50.180;7.036;2023-04-03T13:25:23;2.97;;;1.73;;
37425;SDS011;23285;50.180;7.036;2023-04-03T13:28:13;3.63;;;1.93;;
37425;SDS011;23285;50.180;7.036;2023-04-03T13:31:06;4.67;;;2.20;;
37425;SDS011;23285;50.180;7.036;2023-04-03T13:33:56;3.33;;;2.07;;
37425;SDS011;23285;50.180;7.036;2023-04-03T13:36:45;2.33;;;1.70;;
37425;SDS011;23285;50.180;7.036;2023-04-03T13:39:41;3.17;;;2.20;;
37425;SDS011;23285;50.180;7.036;2023-04-03T13:42:29;5.43;;;1.90;;
37425;SDS011;23285;50.180;7.036;2023-04-03T13:45:19;5.97;;;1.90;;
37425;SDS011;23285;50.180;7.036;2023-04-03T13:48:10;4.37;;;2.73;;
37425;SDS011;23285;50.180;7.036;2023-04-03T13:51:02;4.50;;;1.77;;
37425;SDS011;23285;50.180;7.036;2023-04-03T13:53:51;3.77;;;1.90;;
37425;SDS011;23285;50.180;7.036;2023-04-03T13:56:40;3.00;;;1.70;;
37425;SDS011;23285;50.180;7.036;2023-04-03T13:59:29;2.43;;;1.40;;
37425;SDS011;23285;50.180;7.036;2023-04-03T14:02:18;3.20;;;1.50;;
37425;SDS011;23285;50.180;7.036;2023-04-03T14:05:06;2.50;;;1.60;;
37425;SDS011;23285;50.180;7.036;2023-04-03T14:07:53;2.97;;;1.93;;
37425;SDS011;23285;50.180;7.036;2023-04-03T14:10:41;3.30;;;1.80;;
37425;SDS011;23285;50.180;7.036;2023-04-03T14:13:30;5.20;;;1.73;;
37425;SDS011;23285;50.180;7.036;2023-04-03T14:16:18;6.77;;;4.13;;
37425;SDS011;23285;50.180;7.036;2023-04-03T14:19:06;4.57;;;2.43;;
37425;SDS011;23285;50.180;7.036;2023-04-03T14:21:53;3.40;;;1.77;;
37425;SDS011;23285;50.180;7.036;2023-04-03T14:24:40;2.53;;;1.67;;
37425;SDS011;23285;50.180;7.036;2023-04-03T14:27:28;6.50;;;1.80;;
37425;SDS011;23285;50.180;7.036;2023-04-03T14:30:21;3.63;;;1.60;;
37425;SDS011;23285;50.180;7.036;2023-04-03T14:33:10;2.73;;;1.70;;
37425;SDS011;23285;50.180;7.036;2023-04-03T14:35:59;3.83;;;1.57;;
37425;SDS011;23285;50.180;7.036;2023-04-03T14:38:47;1.93;;;1.50;;
37425;SDS011;23285;50.180;7.036;2023-04-03T14:41:34;2.47;;;1.97;;
37425;SDS011;23285;50.180;7.036;2023-04-03T14:44:21;3.13;;;1.70;;
37425;SDS011;23285;50.180;7.036;2023-04-03T14:47:10;2.37;;;1.60;;
37425;SDS011;23285;50.180;7.036;2023-04-03T14:49:57;5.37;;;1.83;;
37425;SDS011;23285;50.180;7.036;2023-04-03T14:52:44;3.87;;;2.13;;
37425;SDS011;23285;50.180;7.036;2023-04-03T14:55:30;3.87;;;1.87;;
37425;SDS011;23285;50.180;7.036;2023-04-03T14:58:18;3.30;;;1.93;;
37425;SDS011;23285;50.180;7.036;2023-04-03T15:01:05;3.47;;;1.77;;
37425;SDS011;23285;50.180;7.036;2023-04-03T15:03:54;3.33;;;1.80;;
37425;SDS011;23285;50.180;7.036;2023-04-03T15:06:40;4.30;;;1.90;;
37425;SDS011;23285;50.180;7.036;2023-04-03T15:09:27;3.23;;;1.63;;
37425;SDS011;23285;50.180;7.036;2023-04-03T15:12:14;4.60;;;2.03;;
37425;SDS011;23285;50.180;7.036;2023-04-03T15:15:00;4.73;;;1.90;;
37425;SDS011;23285;50.180;7.036;2023-04-03T15:17:47;3.33;;;1.50;;
37425;SDS011;23285;50.180;7.036;2023-04-03T15:20:39;3.30;;;1.90;;
37425;SDS011;23285;50.180;7.036;2023-04-03T15:23:27;2.43;;;1.87;;
37425;SDS011;23285;50.180;7.036;2023-04-03T15:26:14;3.33;;;1.67;;
37425;SDS011;23285;50.180;7.036;2023-04-03T15:29:00;2.73;;;1.83;;
37425;SDS011;23285;50.180;7.036;2023-04-03T15:31:46;2.00;;;1.60;;
37425;SDS011;23285;50.180;7.036;2023-04-03T15:34:34;4.10;;;2.23;;
37425;SDS011;23285;50.180;7.036;2023-04-03T15:37:22;4.73;;;2.33;;
37425;SDS011;23285;50.180;7.036;2023-04-03T15:40:08;4.27;;;2.60;;
37425;SDS011;23285;50.180;7.036;2023-04-03T15:42:55;6.27;;;3.43;;
37425;SDS011;23285;50.180;7.036;2023-04-03T15:45:42;3.23;;;2.17;;
37425;SDS011;23285;50.180;7.036;2023-04-03T15:48:29;3.20;;;1.87;;
37425;SDS011;23285;50.180;7.036;2023-04-03T15:51:15;4.57;;;2.60;;
37425;SDS011;23285;50.180;7.036;2023-04-03T15:54:03;4.40;;;2.20;;
37425;SDS011;23285;50.180;7.036;2023-04-03T15:56:50;2.53;;;1.77;;
37425;SDS011;23285;50.180;7.036;2023-04-03T15:59:37;4.17;;;1.70;;
37425;SDS011;23285;50.180;7.036;2023-04-03T16:02:24;4.20;;;2.07;;
37425;SDS011;23285;50.180;7.036;2023-04-03T16:05:11;3.03;;;2.00;;
37425;SDS011;23285;50.180;7.036;2023-04-03T16:07:59;7.70;;;2.50;;
37425;SDS011;23285;50.180;7.036;2023-04-03T16:10:47;2.33;;;1.70;;
37425;SDS011;23285;50.180;7.036;2023-04-03T16:13:34;2.87;;;2.00;;
37425;SDS011;23285;50.180;7.036;2023-04-03T16:16:20;2.17;;;1.97;;
37425;SDS011;23285;50.180;7.036;2023-04-03T16:19:07;3.87;;;1.60;;
37425;SDS011;23285;50.180;7.036;2023-04-03T16:21:55;5.23;;;1.60;;
37425;SDS011;23285;50.180;7.036;2023-04-03T16:24:41;8.17;;;1.80;;
37425;SDS011;23285;50.180;7.036;2023-04-03T16:27:29;5.90;;;1.83;;
37425;SDS011;23285;50.180;7.036;2023-04-03T16:30:16;4.90;;;1.60;;
37425;SDS011;23285;50.180;7.036;2023-04-03T16:33:02;2.67;;;1.60;;
37425;SDS011;23285;50.180;7.036;2023-04-03T16:35:49;3.17;;;1.63;;
37425;SDS011;23285;50.180;7.036;2023-04-03T16:38:36;2.07;;;1.30;;
37425;SDS011;23285;50.180;7.036;2023-04-03T16:41:22;6.33;;;1.60;;
37425;SDS011;23285;50.180;7.036;2023-04-03T16:44:10;3.77;;;1.37;;
37425;SDS011;23285;50.180;7.036;2023-04-03T16:46:56;2.90;;;1.40;;
37425;SDS011;23285;50.180;7.036;2023-04-03T16:49:43;4.13;;;1.80;;
37425;SDS011;23285;50.180;7.036;2023-04-03T16:52:29;2.10;;;1.50;;
37425;SDS011;23285;50.180;7.036;2023-04-03T16:55:15;2.10;;;1.60;;
37425;SDS011;23285;50.180;7.036;2023-04-03T16:58:02;2.63;;;1.67;;
37425;SDS011;23285;50.180;7.036;2023-04-03T17:00:50;2.50;;;1.57;;
37425;SDS011;23285;50.180;7.036;2023-04-03T17:03:37;3.03;;;1.50;;
37425;SDS011;23285;50.180;7.036;2023-04-03T17:06:24;2.00;;;1.53;;
37425;SDS011;23285;50.180;7.036;2023-04-03T17:09:11;1.37;;;1.20;;
37425;SDS011;23285;50.180;7.036;2023-04-03T17:11:57;3.03;;;1.87;;